Аэропорт: Наримановка. Костанай

ICAO: UAUU

METAR:
2018/07/16 19:30
UAUU 161930Z 04003MPS CAVOK 17/14 Q1014 R15/CLRD70 NOSIG RMK QFE744/0993
METAR:
2017/12/04 06:03
TAF TAF UAUU 040500Z 0406/0418 20005MPS 6000 SCT006 BKN010CB 
      TEMPO 0407/0415 20012MPS 2000 -SHSN BLSN